Terminal Aerodrome Forecast
Issued by NWS Corpus Christi, TX

Current Version | Previous Version | Text Only | Print | Product List | Glossary On
Versions: 1 2 3 4 5 6 7 8 9 10 11 12 13 14 15 16 17 18
000
FTUS44 KCRP 051727 CCA
TAFCRP
TAF COR
KCRP 051727Z 0518/0618 14018G25KT P6SM SCT030 BKN050
      TEMPO 0518/0520 BKN030
     FM060300 13015KT P6SM SCT025
     FM060900 14012KT P6SM SCT015 BKN100
      TEMPO 0609/0612 BKN015 OVC100
     FM061600 15015G20KT P6SM BKN025=

USA.gov is the U.S. government's official web portal to all federal, state and local government web resources and services.